Time;durP1;ratioP1;P1;durP2;ratioP2;P2;SDS_P1;SDS_P2;PMS_P1;PMS_P2;Temp;Humidity;BMP_temperature;BMP_pressure;BME280_temperature;BME280_humidity;BME280_pressure;Samples;Min_cycle;Max_cycle;Signal;HPM_P1;HPM_P2
2022/06/18 00:02:17;;;;;;;1.88;1.00;;;;;;;;;;4987967;28;20050;-61
2022/06/18 00:04:43;;;;;;;1.58;1.00;;;;;;;;;;4994120;28;20042;-63
2022/06/18 00:07:15;;;;;;;1.55;1.20;;;;;;;;;;4993445;28;20049;-63
2022/06/18 00:09:42;;;;;;;1.20;1.08;;;;;;;;;;5005534;28;20495;-61
2022/06/18 00:15:10;;;;;;;1.38;1.10;;;;;;;;;;5012925;28;20078;-61
2022/06/18 00:17:36;;;;;;;1.75;1.27;;;;;;;;;;4998260;28;20038;-61
2022/06/18 00:20:02;;;;;;;1.20;1.00;;;;;;;;;;4975951;28;20097;-62
2022/06/18 00:22:29;;;;;;;1.38;1.00;;;;;;;;;;4997836;28;20104;-61
2022/06/18 00:24:55;;;;;;;1.38;0.90;;;;;;;;;;4995109;28;20054;-67
2022/06/18 00:27:21;;;;;;;1.23;1.10;;;;;;;;;;4995526;28;20049;-61
2022/06/18 00:29:49;;;;;;;1.23;0.98;;;;;;;;;;4993545;28;20044;-61
2022/06/18 00:32:15;;;;;;;1.08;0.98;;;;;;;;;;4993093;28;20073;-62
2022/06/18 00:34:41;;;;;;;1.20;1.10;;;;;;;;;;4993471;28;20420;-61
2022/06/18 00:37:07;;;;;;;1.60;1.17;;;;;;;;;;4992789;28;20391;-61
2022/06/18 00:39:33;;;;;;;1.02;0.90;;;;;;;;;;4992372;28;20126;-61
2022/06/18 00:42:04;;;;;;;1.45;1.10;;;;;;;;;;4994149;28;20619;-63
2022/06/18 00:44:32;;;;;;;1.70;1.20;;;;;;;;;;4992757;28;20496;-61
2022/06/18 00:47:04;;;;;;;1.23;1.13;;;;;;;;;;4993067;28;20054;-67
2022/06/18 00:49:48;;;;;;;1.98;1.20;;;;;;;;;;4999152;28;20042;-62
2022/06/18 00:52:14;;;;;;;1.50;1.02;;;;;;;;;;5012212;28;20463;-61
2022/06/18 00:54:44;;;;;;;1.60;1.00;;;;;;;;;;5012198;28;20100;-61
2022/06/18 00:57:19;;;;;;;1.02;1.00;;;;;;;;;;4996604;28;20042;-61
2022/06/18 00:59:48;;;;;;;1.00;1.00;;;;;;;;;;4992835;28;20480;-61
2022/06/18 01:02:18;;;;;;;1.70;1.27;;;;;;;;;;4992562;28;20089;-61
2022/06/18 01:04:45;;;;;;;1.40;1.00;;;;;;;;;;5004146;28;20050;-61
2022/06/18 01:07:14;;;;;;;1.70;1.30;;;;;;;;;;4992322;28;20050;-61
2022/06/18 01:09:40;;;;;;;1.27;1.10;;;;;;;;;;4992027;28;20045;-61
2022/06/18 01:12:06;;;;;;;1.38;1.02;;;;;;;;;;4991843;28;20499;-60
2022/06/18 01:14:33;;;;;;;2.75;1.30;;;;;;;;;;4994321;28;20047;-61
2022/06/18 01:17:01;;;;;;;1.02;0.90;;;;;;;;;;4992912;28;20085;-61
2022/06/18 01:19:47;;;;;;;1.83;1.25;;;;;;;;;;4992531;28;20042;-60
2022/06/18 01:22:23;;;;;;;2.08;1.20;;;;;;;;;;4991687;28;20053;-61
2022/06/18 01:24:49;;;;;;;1.67;1.10;;;;;;;;;;4991747;28;20054;-60
2022/06/18 01:27:15;;;;;;;1.10;1.00;;;;;;;;;;4991298;28;20046;-64
2022/06/18 01:29:41;;;;;;;1.52;1.13;;;;;;;;;;5000017;28;20053;-61
2022/06/18 01:32:09;;;;;;;2.08;1.08;;;;;;;;;;5010338;28;20072;-61
2022/06/18 01:34:36;;;;;;;1.58;1.13;;;;;;;;;;5011889;28;20038;-62
2022/06/18 01:37:03;;;;;;;1.10;1.00;;;;;;;;;;5009749;28;20081;-67
2022/06/18 01:39:32;;;;;;;1.23;1.13;;;;;;;;;;4993375;28;20449;-60
2022/06/18 01:42:01;;;;;;;1.02;0.93;;;;;;;;;;5010928;28;20042;-63
2022/06/18 01:44:34;;;;;;;1.55;1.00;;;;;;;;;;5010917;28;20053;-60
2022/06/18 01:47:04;;;;;;;1.50;1.17;;;;;;;;;;5011923;28;20130;-61
2022/06/18 01:49:36;;;;;;;1.00;0.90;;;;;;;;;;5005092;28;20086;-61
2022/06/18 01:52:04;;;;;;;1.38;1.13;;;;;;;;;;4992047;28;20049;-61
2022/06/18 01:54:36;;;;;;;1.20;1.05;;;;;;;;;;4991155;28;20101;-62
2022/06/18 01:57:04;;;;;;;2.25;1.08;;;;;;;;;;4997099;28;20054;-61
2022/06/18 01:59:33;;;;;;;1.40;1.10;;;;;;;;;;4992980;28;20088;-63
2022/06/18 02:01:59;;;;;;;0.82;0.82;;;;;;;;;;5008775;28;20046;-61
2022/06/18 02:04:27;;;;;;;1.50;1.20;;;;;;;;;;5010905;28;20137;-61
2022/06/18 02:06:54;;;;;;;1.92;1.10;;;;;;;;;;4994032;28;20046;-65
2022/06/18 02:09:29;;;;;;;0.75;0.75;;;;;;;;;;5009834;28;20056;-61
2022/06/18 02:11:56;;;;;;;1.27;1.03;;;;;;;;;;5010199;28;20175;-61
2022/06/18 02:14:23;;;;;;;1.27;1.17;;;;;;;;;;5010142;28;20492;-60
2022/06/18 02:16:50;;;;;;;1.60;1.30;;;;;;;;;;4999701;28;20173;-61
2022/06/18 02:19:17;;;;;;;0.77;0.77;;;;;;;;;;4991079;28;20111;-60
2022/06/18 02:21:45;;;;;;;1.00;1.00;;;;;;;;;;4991779;28;20506;-61
2022/06/18 02:24:11;;;;;;;1.65;1.30;;;;;;;;;;4990091;28;20129;-61
2022/06/18 02:26:40;;;;;;;1.27;0.90;;;;;;;;;;4991669;28;20120;-61
2022/06/18 02:29:09;;;;;;;1.10;1.00;;;;;;;;;;4990152;28;20057;-67
2022/06/18 02:31:36;;;;;;;1.00;0.85;;;;;;;;;;4990439;28;20042;-60
2022/06/18 02:34:04;;;;;;;1.52;1.10;;;;;;;;;;5006587;28;20050;-60
2022/06/18 02:36:34;;;;;;;0.90;0.90;;;;;;;;;;5010621;28;20089;-61
2022/06/18 02:39:15;;;;;;;1.08;0.98;;;;;;;;;;5003010;28;20089;-63
2022/06/18 02:41:42;;;;;;;2.35;1.10;;;;;;;;;;4991622;28;20046;-62
2022/06/18 02:44:09;;;;;;;2.33;1.20;;;;;;;;;;4989571;28;20515;-67
2022/06/18 02:46:35;;;;;;;1.08;0.98;;;;;;;;;;4986802;28;20046;-61
2022/06/18 02:49:04;;;;;;;1.20;1.00;;;;;;;;;;5010860;28;20047;-60
2022/06/18 02:51:30;;;;;;;1.40;1.00;;;;;;;;;;5009335;28;20045;-61
2022/06/18 02:53:57;;;;;;;1.33;0.77;;;;;;;;;;5010447;28;20041;-63
2022/06/18 02:56:23;;;;;;;1.80;0.98;;;;;;;;;;5002591;28;20125;-61
2022/06/18 02:58:49;;;;;;;1.05;0.95;;;;;;;;;;4990003;28;20573;-60
2022/06/18 03:01:17;;;;;;;1.20;1.10;;;;;;;;;;4990463;28;20046;-60
2022/06/18 03:03:47;;;;;;;1.35;0.90;;;;;;;;;;5003747;28;20053;-61
2022/06/18 03:06:14;;;;;;;1.02;1.00;;;;;;;;;;5010043;28;20053;-61
2022/06/18 03:08:41;;;;;;;1.17;1.05;;;;;;;;;;5010762;28;20042;-62
2022/06/18 03:13:54;;;;;;;1.17;1.00;;;;;;;;;;5009940;28;20052;-61
2022/06/18 03:16:22;;;;;;;0.70;0.70;;;;;;;;;;4972880;28;20554;-62
2022/06/18 03:18:49;;;;;;;1.00;0.90;;;;;;;;;;5002618;28;20108;-61
2022/06/18 03:21:15;;;;;;;0.90;0.90;;;;;;;;;;4990472;28;20057;-61
2022/06/18 03:23:45;;;;;;;1.17;1.08;;;;;;;;;;5005087;28;20046;-61
2022/06/18 03:26:12;;;;;;;1.70;1.30;;;;;;;;;;5009471;28;20054;-67
2022/06/18 03:28:38;;;;;;;0.88;0.88;;;;;;;;;;4988073;28;20053;-61
2022/06/18 03:31:04;;;;;;;0.93;0.90;;;;;;;;;;4994617;28;20361;-61
2022/06/18 03:33:31;;;;;;;1.55;1.10;;;;;;;;;;4994243;28;20127;-63
2022/06/18 03:35:57;;;;;;;1.15;1.05;;;;;;;;;;4994543;28;20475;-62
2022/06/18 03:38:23;;;;;;;1.30;1.05;;;;;;;;;;4976521;28;20177;-60
2022/06/18 03:40:52;;;;;;;1.60;1.02;;;;;;;;;;4998209;28;20737;-62
2022/06/18 03:43:23;;;;;;;1.42;1.02;;;;;;;;;;4975843;28;20395;-61
2022/06/18 03:45:54;;;;;;;1.10;0.93;;;;;;;;;;5003037;28;20424;-62
2022/06/18 03:48:32;;;;;;;1.45;1.00;;;;;;;;;;4993644;28;20125;-60
2022/06/18 03:50:59;;;;;;;2.05;0.98;;;;;;;;;;5003378;28;20147;-62
2022/06/18 03:53:25;;;;;;;0.88;0.80;;;;;;;;;;5013285;28;20042;-60
2022/06/18 03:55:51;;;;;;;1.65;0.88;;;;;;;;;;5013005;28;20045;-63
2022/06/18 03:58:17;;;;;;;1.05;0.93;;;;;;;;;;5012387;28;20483;-61
2022/06/18 04:00:44;;;;;;;1.00;0.90;;;;;;;;;;5013464;28;20046;-61
2022/06/18 04:03:10;;;;;;;1.15;0.90;;;;;;;;;;5012638;28;20046;-62
2022/06/18 04:05:38;;;;;;;1.35;1.02;;;;;;;;;;5003302;28;20050;-61
2022/06/18 04:08:04;;;;;;;1.55;1.08;;;;;;;;;;5013463;28;20041;-62
2022/06/18 04:10:30;;;;;;;1.08;0.95;;;;;;;;;;4997131;28;20423;-62
2022/06/18 04:12:56;;;;;;;0.95;0.88;;;;;;;;;;4995209;28;20099;-61
2022/06/18 04:15:22;;;;;;;1.42;0.90;;;;;;;;;;4976424;28;20049;-63
2022/06/18 04:17:48;;;;;;;1.55;0.95;;;;;;;;;;4993963;28;20077;-61
2022/06/18 04:20:19;;;;;;;0.80;0.80;;;;;;;;;;4994212;28;20048;-67
2022/06/18 04:22:45;;;;;;;0.90;0.90;;;;;;;;;;5012669;28;20042;-61
2022/06/18 04:25:11;;;;;;;1.88;1.10;;;;;;;;;;5011494;28;20045;-61
2022/06/18 04:27:37;;;;;;;1.00;0.93;;;;;;;;;;4999917;28;20665;-62
2022/06/18 04:30:04;;;;;;;1.27;0.90;;;;;;;;;;4993545;28;20436;-60
2022/06/18 04:32:30;;;;;;;0.80;0.80;;;;;;;;;;4992960;28;20042;-61
2022/06/18 04:34:56;;;;;;;1.20;0.80;;;;;;;;;;4993369;28;20049;-61
2022/06/18 04:37:22;;;;;;;1.05;0.77;;;;;;;;;;4992503;28;20092;-61
2022/06/18 04:39:48;;;;;;;0.90;0.82;;;;;;;;;;4992220;28;20057;-62
2022/06/18 04:42:14;;;;;;;0.95;0.85;;;;;;;;;;4992689;28;20050;-64
2022/06/18 04:44:40;;;;;;;0.60;0.60;;;;;;;;;;4992589;28;20038;-61
2022/06/18 04:47:06;;;;;;;1.45;0.85;;;;;;;;;;5005815;28;20104;-61
2022/06/18 04:49:32;;;;;;;0.90;0.90;;;;;;;;;;4994118;28;20064;-61
2022/06/18 04:51:58;;;;;;;1.23;1.08;;;;;;;;;;4999140;28;20073;-61
2022/06/18 04:54:24;;;;;;;1.48;1.15;;;;;;;;;;5004684;28;20050;-61
2022/06/18 04:56:50;;;;;;;0.90;0.85;;;;;;;;;;4993185;28;20515;-63
2022/06/18 04:59:16;;;;;;;0.70;0.70;;;;;;;;;;4991987;28;20646;-61
2022/06/18 05:01:43;;;;;;;1.17;0.88;;;;;;;;;;4992870;28;20077;-61
2022/06/18 05:04:09;;;;;;;1.23;0.93;;;;;;;;;;5008807;28;20089;-62
2022/06/18 05:06:35;;;;;;;0.77;0.77;;;;;;;;;;5011948;28;20049;-61
2022/06/18 05:09:01;;;;;;;0.82;0.82;;;;;;;;;;4994136;28;20082;-61
2022/06/18 05:11:27;;;;;;;0.80;0.80;;;;;;;;;;5011731;28;20061;-62
2022/06/18 05:13:53;;;;;;;1.10;0.93;;;;;;;;;;5008129;28;20060;-60
2022/06/18 05:16:20;;;;;;;1.00;0.90;;;;;;;;;;4991239;28;20439;-66
2022/06/18 05:18:46;;;;;;;0.88;0.88;;;;;;;;;;4992805;28;20046;-61
2022/06/18 05:21:13;;;;;;;0.90;0.90;;;;;;;;;;4994281;28;20049;-61
2022/06/18 05:23:39;;;;;;;0.93;0.90;;;;;;;;;;5011533;28;20050;-61
2022/06/18 05:26:06;;;;;;;1.90;1.13;;;;;;;;;;5011382;28;20046;-61
2022/06/18 05:28:32;;;;;;;2.00;1.20;;;;;;;;;;5010646;28;20045;-61
2022/06/18 05:30:58;;;;;;;1.58;1.10;;;;;;;;;;4994368;28;20037;-62
2022/06/18 05:33:24;;;;;;;4.00;1.23;;;;;;;;;;5010205;28;20046;-61
2022/06/18 05:35:50;;;;;;;0.95;0.95;;;;;;;;;;4998715;28;20464;-61
2022/06/18 05:38:18;;;;;;;1.02;1.00;;;;;;;;;;4992221;28;20093;-60
2022/06/18 05:40:44;;;;;;;1.17;1.10;;;;;;;;;;5000522;28;20053;-60
2022/06/18 05:43:10;;;;;;;1.17;1.08;;;;;;;;;;5010973;28;20356;-60
2022/06/18 05:45:36;;;;;;;1.30;1.08;;;;;;;;;;5011252;28;20046;-61
2022/06/18 05:48:03;;;;;;;1.20;1.10;;;;;;;;;;5011804;28;20181;-61
2022/06/18 05:50:29;;;;;;;0.93;0.93;;;;;;;;;;4993152;28;20388;-61
2022/06/18 05:52:55;;;;;;;1.55;1.00;;;;;;;;;;5008903;28;20144;-61
2022/06/18 05:55:22;;;;;;;1.17;1.05;;;;;;;;;;4989588;28;20074;-61
2022/06/18 05:57:50;;;;;;;0.90;0.90;;;;;;;;;;5003714;28;20061;-61
2022/06/18 06:00:17;;;;;;;1.73;1.05;;;;;;;;;;4991889;28;20100;-61
2022/06/18 06:02:44;;;;;;;0.80;0.80;;;;;;;;;;5000936;28;20294;-61
2022/06/18 06:05:10;;;;;;;1.23;1.08;;;;;;;;;;5011424;28;20534;-61
2022/06/18 06:07:36;;;;;;;1.10;1.00;;;;;;;;;;5010748;28;20053;-61
2022/06/18 06:12:47;;;;;;;2.22;1.15;;;;;;;;;;5008846;28;20084;-61
2022/06/18 06:15:13;;;;;;;0.95;0.90;;;;;;;;;;4990635;28;20050;-61
2022/06/18 06:17:39;;;;;;;1.08;0.98;;;;;;;;;;4990268;28;20112;-61
2022/06/18 06:20:07;;;;;;;1.17;1.08;;;;;;;;;;4974162;28;20432;-61
2022/06/18 06:22:36;;;;;;;1.90;0.88;;;;;;;;;;4990988;28;20091;-61
2022/06/18 06:25:03;;;;;;;0.77;0.77;;;;;;;;;;5005758;28;20099;-61
2022/06/18 06:27:29;;;;;;;2.97;0.93;;;;;;;;;;5009760;28;20045;-61
2022/06/18 06:29:55;;;;;;;1.45;0.93;;;;;;;;;;5010626;28;20072;-62
2022/06/18 06:32:21;;;;;;;1.27;1.00;;;;;;;;;;5010587;28;20103;-61
2022/06/18 06:34:47;;;;;;;1.77;1.17;;;;;;;;;;5006842;28;20053;-62
2022/06/18 06:37:13;;;;;;;1.67;1.10;;;;;;;;;;5010297;28;20060;-61
2022/06/18 06:39:40;;;;;;;0.93;0.93;;;;;;;;;;5009634;28;20100;-62
2022/06/18 06:42:06;;;;;;;1.20;1.10;;;;;;;;;;5004346;28;20046;-61
2022/06/18 06:44:32;;;;;;;1.38;1.23;;;;;;;;;;5006520;28;20125;-61
2022/06/18 06:46:59;;;;;;;1.00;1.00;;;;;;;;;;4993626;28;20164;-61
2022/06/18 06:49:25;;;;;;;1.20;0.98;;;;;;;;;;5010919;28;20077;-61
2022/06/18 06:51:53;;;;;;;1.65;1.00;;;;;;;;;;5010678;28;20095;-61
2022/06/18 06:54:20;;;;;;;0.80;0.80;;;;;;;;;;4992629;28;20057;-62
2022/06/18 06:59:30;;;;;;;1.50;1.10;;;;;;;;;;4994974;28;20143;-64
2022/06/18 07:01:56;;;;;;;1.20;1.02;;;;;;;;;;5000817;28;20101;-61
2022/06/18 07:04:23;;;;;;;1.65;1.15;;;;;;;;;;5005064;28;20046;-61
2022/06/18 07:06:49;;;;;;;1.75;1.20;;;;;;;;;;5008132;28;20111;-61
2022/06/18 07:09:15;;;;;;;1.15;0.90;;;;;;;;;;4998464;28;20263;-64
2022/06/18 07:11:43;;;;;;;0.88;0.80;;;;;;;;;;5008347;28;20049;-62
2022/06/18 07:14:09;;;;;;;0.95;0.93;;;;;;;;;;5006341;28;20042;-62
2022/06/18 07:16:35;;;;;;;1.40;1.23;;;;;;;;;;5012963;28;20037;-61
2022/06/18 07:19:01;;;;;;;0.75;0.75;;;;;;;;;;5013370;28;20104;-63
2022/06/18 07:21:28;;;;;;;1.13;0.90;;;;;;;;;;5013571;28;20480;-61
2022/06/18 07:23:54;;;;;;;1.63;1.20;;;;;;;;;;5008545;28;20095;-66
2022/06/18 07:26:22;;;;;;;0.98;0.90;;;;;;;;;;5013508;28;20050;-61
2022/06/18 07:28:48;;;;;;;1.20;0.98;;;;;;;;;;5012285;28;20064;-62
2022/06/18 07:31:16;;;;;;;1.13;1.02;;;;;;;;;;5013774;28;20042;-61
2022/06/18 07:33:44;;;;;;;1.20;0.93;;;;;;;;;;5010930;28;20041;-62
2022/06/18 07:36:10;;;;;;;1.20;1.10;;;;;;;;;;5011107;28;20088;-61
2022/06/18 07:38:36;;;;;;;5.03;2.15;;;;;;;;;;4988521;28;20507;-60
2022/06/18 07:41:02;;;;;;;2.63;1.48;;;;;;;;;;5003282;28;20073;-61
2022/06/18 07:43:33;;;;;;;4.38;2.53;;;;;;;;;;5012701;28;20045;-60
2022/06/18 07:46:01;;;;;;;2.28;1.60;;;;;;;;;;4996398;28;20144;-60
2022/06/18 07:48:27;;;;;;;2.72;1.80;;;;;;;;;;5014082;28;20092;-61
2022/06/18 07:50:53;;;;;;;2.13;1.63;;;;;;;;;;5013469;28;20045;-62
2022/06/18 07:53:23;;;;;;;1.63;1.50;;;;;;;;;;5013876;28;20095;-61
2022/06/18 07:55:50;;;;;;;2.90;1.48;;;;;;;;;;4989768;28;20407;-60
2022/06/18 07:58:16;;;;;;;1.88;1.30;;;;;;;;;;4993390;28;20050;-60
2022/06/18 08:00:43;;;;;;;2.92;1.33;;;;;;;;;;5005742;28;20084;-62
2022/06/18 08:03:10;;;;;;;1.98;1.30;;;;;;;;;;5013805;28;20049;-60
2022/06/18 08:05:36;;;;;;;2.47;1.52;;;;;;;;;;5013359;28;20042;-67
2022/06/18 08:08:03;;;;;;;1.92;1.50;;;;;;;;;;5013387;28;20042;-60
2022/06/18 08:10:30;;;;;;;4.53;2.60;;;;;;;;;;5009795;28;20050;-59
2022/06/18 08:12:56;;;;;;;4.00;2.30;;;;;;;;;;5001347;28;20077;-61
2022/06/18 08:15:22;;;;;;;2.85;1.85;;;;;;;;;;4998582;28;20042;-60
2022/06/18 08:17:48;;;;;;;5.15;2.55;;;;;;;;;;4994820;28;20046;-62
2022/06/18 08:20:14;;;;;;;5.45;2.20;;;;;;;;;;5003255;28;20048;-60
2022/06/18 08:22:42;;;;;;;5.70;2.63;;;;;;;;;;5012742;28;20369;-59
2022/06/18 08:25:10;;;;;;;4.97;2.53;;;;;;;;;;5012515;28;20126;-59
2022/06/18 08:27:36;;;;;;;6.70;2.50;;;;;;;;;;5012319;28;20538;-60
2022/06/18 08:30:04;;;;;;;3.78;2.20;;;;;;;;;;5012607;28;20050;-60
2022/06/18 08:32:30;;;;;;;4.80;2.17;;;;;;;;;;5012800;28;20049;-60
2022/06/18 08:34:56;;;;;;;4.22;2.17;;;;;;;;;;5012367;28;20037;-61
2022/06/18 08:37:22;;;;;;;4.78;2.15;;;;;;;;;;5012426;28;20133;-60
2022/06/18 08:39:48;;;;;;;4.97;1.90;;;;;;;;;;5009513;28;20049;-60
2022/06/18 08:42:18;;;;;;;4.68;2.00;;;;;;;;;;4992998;28;20038;-61
2022/06/18 08:44:54;;;;;;;5.10;2.35;;;;;;;;;;4995732;28;20111;-60
2022/06/18 08:47:32;;;;;;;2.22;1.80;;;;;;;;;;4991053;28;20045;-60
2022/06/18 08:50:02;;;;;;;4.50;1.90;;;;;;;;;;5011661;28;20068;-60
2022/06/18 08:52:34;;;;;;;3.60;1.88;;;;;;;;;;5012449;28;20487;-60
2022/06/18 08:55:06;;;;;;;3.75;1.83;;;;;;;;;;5004430;28;20049;-61
2022/06/18 08:57:40;;;;;;;2.63;2.00;;;;;;;;;;4992261;28;20038;-60
2022/06/18 09:00:24;;;;;;;3.53;1.83;;;;;;;;;;4992743;28;20088;-60
2022/06/18 09:02:50;;;;;;;2.90;1.65;;;;;;;;;;4992596;28;20042;-60
2022/06/18 09:05:19;;;;;;;4.32;2.20;;;;;;;;;;5009894;28;20056;-60
2022/06/18 09:08:03;;;;;;;2.58;1.67;;;;;;;;;;4992285;28;20050;-60
2022/06/18 09:10:32;;;;;;;4.05;2.15;;;;;;;;;;4992107;28;20050;-60
2022/06/18 09:13:02;;;;;;;3.85;2.00;;;;;;;;;;5002930;28;20049;-61
2022/06/18 09:15:34;;;;;;;1.75;1.50;;;;;;;;;;5012394;28;20136;-60
2022/06/18 09:18:15;;;;;;;2.45;1.90;;;;;;;;;;5011667;28;20526;-60
2022/06/18 09:20:50;;;;;;;2.25;1.67;;;;;;;;;;5012032;28;20061;-60
2022/06/18 09:23:19;;;;;;;2.42;1.75;;;;;;;;;;4994871;28;20045;-59
2022/06/18 09:25:47;;;;;;;3.00;1.63;;;;;;;;;;4986861;28;20050;-61
2022/06/18 09:28:26;;;;;;;2.75;1.90;;;;;;;;;;5008770;28;20085;-60
2022/06/18 09:30:55;;;;;;;2.45;1.70;;;;;;;;;;5009467;28;20447;-60
2022/06/18 09:33:33;;;;;;;3.00;1.90;;;;;;;;;;5012050;28;20103;-61
2022/06/18 09:36:03;;;;;;;4.22;2.17;;;;;;;;;;5011394;28;20046;-60
2022/06/18 09:38:29;;;;;;;2.33;1.70;;;;;;;;;;5011851;28;20106;-62
2022/06/18 09:40:57;;;;;;;2.80;1.70;;;;;;;;;;5010491;28;20050;-59
2022/06/18 09:43:43;;;;;;;3.38;1.65;;;;;;;;;;5010294;28;20068;-60
2022/06/18 09:46:15;;;;;;;2.30;1.75;;;;;;;;;;4948457;28;20058;-60
2022/06/18 09:48:42;;;;;;;3.33;1.80;;;;;;;;;;4974897;28;20083;-61
2022/06/18 09:51:21;;;;;;;2.95;1.88;;;;;;;;;;4991641;28;20050;-59
2022/06/18 09:53:48;;;;;;;2.72;1.60;;;;;;;;;;4994695;28;20057;-66
2022/06/18 09:56:16;;;;;;;3.45;2.00;;;;;;;;;;5000928;28;20084;-61
2022/06/18 09:58:49;;;;;;;3.55;1.70;;;;;;;;;;4993150;28;20045;-62
2022/06/18 10:01:19;;;;;;;1.70;1.33;;;;;;;;;;5011374;28;20052;-62
2022/06/18 10:09:20;;;;;;;2.40;1.77;;;;;;;;;;5010500;28;20060;-61
2022/06/18 10:11:47;;;;;;;1.55;1.45;;;;;;;;;;4993934;28;20049;-61
2022/06/18 10:14:21;;;;;;;1.90;1.40;;;;;;;;;;5003763;28;20046;-61
2022/06/18 10:16:52;;;;;;;2.85;1.15;;;;;;;;;;4991826;28;20125;-64
2022/06/18 10:19:28;;;;;;;2.83;1.77;;;;;;;;;;4991687;28;20447;-61
2022/06/18 10:21:54;;;;;;;2.22;1.52;;;;;;;;;;4991336;28;20054;-61
2022/06/18 10:24:23;;;;;;;2.03;1.58;;;;;;;;;;4990609;28;20108;-61
2022/06/18 10:27:07;;;;;;;1.85;1.50;;;;;;;;;;4979073;28;20493;-68
2022/06/18 10:29:59;;;;;;;1.83;1.50;;;;;;;;;;4993943;28;20637;-61
2022/06/18 10:32:30;;;;;;;2.63;1.70;;;;;;;;;;4991629;28;20050;-61
2022/06/18 10:35:10;;;;;;;1.23;1.00;;;;;;;;;;4991090;28;20050;-61
2022/06/18 10:37:48;;;;;;;1.60;1.20;;;;;;;;;;4990784;28;20054;-61
2022/06/18 10:40:49;;;;;;;1.45;1.35;;;;;;;;;;4990704;28;20051;-61
2022/06/18 10:43:24;;;;;;;1.65;1.23;;;;;;;;;;4935452;29;20134;-61
2022/06/18 10:45:56;;;;;;;2.20;1.30;;;;;;;;;;4996026;28;20061;-67
2022/06/18 10:48:27;;;;;;;2.10;1.40;;;;;;;;;;4993562;28;20061;-61
2022/06/18 10:50:54;;;;;;;1.38;1.17;;;;;;;;;;4990711;28;20542;-61
2022/06/18 10:53:22;;;;;;;1.85;1.40;;;;;;;;;;4991369;28;20050;-61
2022/06/18 10:55:57;;;;;;;1.42;1.30;;;;;;;;;;4990901;28;20050;-61
2022/06/18 10:58:23;;;;;;;1.83;1.30;;;;;;;;;;4985994;28;20050;-61
2022/06/18 11:01:15;;;;;;;1.13;1.02;;;;;;;;;;4991516;28;20056;-61
2022/06/18 11:03:52;;;;;;;1.73;1.20;;;;;;;;;;4996347;28;20089;-63
2022/06/18 11:06:18;;;;;;;1.55;1.10;;;;;;;;;;4990480;28;20052;-61
2022/06/18 11:08:52;;;;;;;1.35;1.25;;;;;;;;;;4973575;28;20474;-62
2022/06/18 11:11:21;;;;;;;2.10;1.30;;;;;;;;;;5003290;28;20043;-61
2022/06/18 11:13:49;;;;;;;32.75;3.40;;;;;;;;;;4990193;28;20049;-61
2022/06/18 11:16:21;;;;;;;1.40;1.20;;;;;;;;;;5001440;28;20112;-63
2022/06/18 11:18:52;;;;;;;1.90;1.25;;;;;;;;;;5000743;28;20484;-64
2022/06/18 11:21:22;;;;;;;1.80;1.35;;;;;;;;;;4990908;28;20125;-64
2022/06/18 11:23:52;;;;;;;1.55;1.30;;;;;;;;;;5009632;28;20073;-64
2022/06/18 11:26:22;;;;;;;1.30;1.20;;;;;;;;;;5006045;28;20099;-66
2022/06/18 11:28:50;;;;;;;4.18;2.13;;;;;;;;;;5001028;28;20038;-63
2022/06/18 11:31:24;;;;;;;1.73;1.52;;;;;;;;;;5006241;28;20376;-63
2022/06/18 11:34:12;;;;;;;2.90;1.67;;;;;;;;;;5010155;28;20046;-63
2022/06/18 11:36:52;;;;;;;2.00;1.50;;;;;;;;;;5006218;28;20069;-62
2022/06/18 11:39:38;;;;;;;3.58;1.70;;;;;;;;;;5007755;28;20057;-63
2022/06/18 11:42:43;;;;;;;1.65;1.45;;;;;;;;;;5007752;28;20125;-63
2022/06/18 11:45:28;;;;;;;2.35;1.90;;;;;;;;;;4909515;29;20036;-63
2022/06/18 11:47:56;;;;;;;2.20;1.50;;;;;;;;;;4910817;29;20047;-63
2022/06/18 11:50:25;;;;;;;7.97;2.35;;;;;;;;;;4974068;28;20081;-63
2022/06/18 11:53:12;;;;;;;2.53;1.63;;;;;;;;;;5012374;28;20107;-63
2022/06/18 11:55:44;;;;;;;2.45;1.60;;;;;;;;;;5010819;28;20042;-62
2022/06/18 11:58:23;;;;;;;4.15;1.70;;;;;;;;;;4997170;28;20045;-62
2022/06/18 12:00:49;;;;;;;12.10;2.45;;;;;;;;;;5013373;28;20041;-62
2022/06/18 12:03:18;;;;;;;4.15;2.10;;;;;;;;;;5006339;28;20038;-63
2022/06/18 12:05:51;;;;;;;4.60;2.25;;;;;;;;;;4993149;28;20173;-62
2022/06/18 12:08:19;;;;;;;3.38;2.00;;;;;;;;;;4993375;28;20100;-62
2022/06/18 12:10:48;;;;;;;4.03;2.08;;;;;;;;;;4976042;28;20138;-62
2022/06/18 12:13:14;;;;;;;3.45;2.22;;;;;;;;;;4992587;28;20053;-62
2022/06/18 12:15:46;;;;;;;3.97;2.10;;;;;;;;;;4999486;28;20050;-63
2022/06/18 12:18:17;;;;;;;3.78;2.42;;;;;;;;;;5013108;28;20038;-63
2022/06/18 12:20:44;;;;;;;5.43;2.42;;;;;;;;;;5013283;28;20060;-62
2022/06/18 12:23:18;;;;;;;3.47;2.22;;;;;;;;;;5012722;28;20046;-62
2022/06/18 12:26:03;;;;;;;4.60;2.17;;;;;;;;;;5012569;28;20050;-62
2022/06/18 12:28:32;;;;;;;4.72;2.20;;;;;;;;;;5012155;28;20545;-62
2022/06/18 12:31:01;;;;;;;4.30;2.35;;;;;;;;;;5009660;28;20042;-62
2022/06/18 12:33:45;;;;;;;4.13;2.10;;;;;;;;;;4997203;28;20050;-62
2022/06/18 12:36:19;;;;;;;3.15;1.90;;;;;;;;;;4993007;28;20090;-63
2022/06/18 12:38:51;;;;;;;4.28;2.00;;;;;;;;;;4972558;28;20073;-62
2022/06/18 12:41:22;;;;;;;6.60;2.20;;;;;;;;;;4972816;28;20145;-62
2022/06/18 12:43:54;;;;;;;3.63;1.92;;;;;;;;;;4981972;28;20077;-62
2022/06/18 12:46:26;;;;;;;4.05;2.03;;;;;;;;;;4986780;28;20061;-62
2022/06/18 12:49:01;;;;;;;2.70;1.90;;;;;;;;;;4973665;28;20396;-62
2022/06/18 12:51:32;;;;;;;6.30;2.08;;;;;;;;;;4974140;28;20432;-62
2022/06/18 12:54:34;;;;;;;4.80;1.98;;;;;;;;;;4973124;28;20090;-62
2022/06/18 12:57:13;;;;;;;4.05;2.08;;;;;;;;;;4945583;29;20049;-62
2022/06/18 13:00:00;;;;;;;2.75;1.80;;;;;;;;;;4987797;28;20104;-62
2022/06/18 13:02:26;;;;;;;2.15;1.65;;;;;;;;;;4993010;28;20069;-62
2022/06/18 13:05:11;;;;;;;2.65;1.90;;;;;;;;;;4976188;28;20082;-62
2022/06/18 13:08:04;;;;;;;3.47;2.03;;;;;;;;;;4973198;28;20540;-62
2022/06/18 13:10:53;;;;;;;2.95;1.85;;;;;;;;;;4972813;28;20134;-62
2022/06/18 13:13:58;;;;;;;2.78;2.08;;;;;;;;;;4960917;28;20054;-62
2022/06/18 13:16:26;;;;;;;6.78;2.30;;;;;;;;;;4917446;29;20043;-63
2022/06/18 13:18:54;;;;;;;4.28;2.25;;;;;;;;;;4931616;29;20047;-63
2022/06/18 13:21:20;;;;;;;4.60;1.73;;;;;;;;;;4951822;28;20433;-63
2022/06/18 13:29:30;;;;;;;4.00;1.90;;;;;;;;;;4990994;28;20058;-62
2022/06/18 13:32:02;;;;;;;3.53;2.30;;;;;;;;;;4991797;28;20046;-63
2022/06/18 13:34:31;;;;;;;5.20;2.03;;;;;;;;;;4988963;28;20136;-63
2022/06/18 13:36:57;;;;;;;3.63;1.85;;;;;;;;;;4986201;28;20105;-62
2022/06/18 13:39:42;;;;;;;5.18;2.25;;;;;;;;;;5007592;28;20057;-62
2022/06/18 13:42:13;;;;;;;6.93;2.05;;;;;;;;;;5010983;28;20049;-63
2022/06/18 13:44:45;;;;;;;3.00;1.90;;;;;;;;;;5006479;28;20141;-62
2022/06/18 13:47:23;;;;;;;4.95;2.10;;;;;;;;;;5011138;28;20057;-63
2022/06/18 13:49:59;;;;;;;2.97;1.70;;;;;;;;;;5011455;28;20088;-62
2022/06/18 13:52:25;;;;;;;4.20;1.98;;;;;;;;;;5008652;28;20068;-63
2022/06/18 13:54:52;;;;;;;4.50;1.67;;;;;;;;;;5011623;28;20065;-63
2022/06/18 13:57:20;;;;;;;6.32;2.03;;;;;;;;;;5004057;28;20053;-63
2022/06/18 13:59:57;;;;;;;5.22;2.13;;;;;;;;;;5003482;28;20046;-62
2022/06/18 14:02:29;;;;;;;3.20;1.80;;;;;;;;;;4996192;28;20124;-62
2022/06/18 14:05:01;;;;;;;4.10;1.80;;;;;;;;;;5009001;28;20104;-63
2022/06/18 14:07:28;;;;;;;2.33;1.60;;;;;;;;;;4998104;28;20041;-63
2022/06/18 14:09:55;;;;;;;2.67;1.60;;;;;;;;;;4997634;28;20057;-62
2022/06/18 14:12:24;;;;;;;2.47;1.67;;;;;;;;;;5009245;28;20049;-63
2022/06/18 14:15:01;;;;;;;2.60;1.60;;;;;;;;;;5010807;28;20077;-62
2022/06/18 14:17:37;;;;;;;2.72;1.50;;;;;;;;;;5006354;28;20037;-62
2022/06/18 14:20:04;;;;;;;3.47;1.70;;;;;;;;;;5002427;28;20045;-62
2022/06/18 14:22:31;;;;;;;3.10;1.70;;;;;;;;;;4992842;28;20375;-63
2022/06/18 14:25:02;;;;;;;2.42;1.48;;;;;;;;;;5004492;28;20121;-63
2022/06/18 14:27:33;;;;;;;3.53;1.90;;;;;;;;;;4996032;28;20053;-62
2022/06/18 14:30:00;;;;;;;3.78;1.77;;;;;;;;;;5005257;28;20041;-62
2022/06/18 14:32:37;;;;;;;1.63;1.23;;;;;;;;;;4988120;28;20042;-63
2022/06/18 14:35:09;;;;;;;3.08;1.92;;;;;;;;;;5000648;28;20116;-62
2022/06/18 14:37:40;;;;;;;2.22;1.40;;;;;;;;;;4995839;28;20057;-62
2022/06/18 14:40:07;;;;;;;7.80;1.88;;;;;;;;;;4992670;28;20477;-62
2022/06/18 14:42:33;;;;;;;3.22;1.67;;;;;;;;;;4996824;28;20052;-63
2022/06/18 14:45:18;;;;;;;2.47;1.48;;;;;;;;;;4991129;28;20038;-63
2022/06/18 14:47:48;;;;;;;3.17;1.60;;;;;;;;;;4997983;28;20034;-62
2022/06/18 14:50:17;;;;;;;2.05;1.50;;;;;;;;;;4996150;28;20056;-62
2022/06/18 14:52:54;;;;;;;2.83;1.40;;;;;;;;;;5009175;28;20046;-63
2022/06/18 14:55:20;;;;;;;3.08;1.77;;;;;;;;;;5001171;28;20170;-62
2022/06/18 14:57:46;;;;;;;2.22;1.30;;;;;;;;;;5000934;28;20058;-62
2022/06/18 15:00:13;;;;;;;1.80;1.52;;;;;;;;;;5005393;28;20122;-63
2022/06/18 15:02:46;;;;;;;2.97;1.50;;;;;;;;;;5006770;28;20053;-62
2022/06/18 15:05:41;;;;;;;1.88;1.50;;;;;;;;;;4997154;28;20122;-63
2022/06/18 15:08:17;;;;;;;2.75;1.63;;;;;;;;;;4989644;28;20125;-62
2022/06/18 15:10:45;;;;;;;1.77;1.35;;;;;;;;;;4988081;28;20042;-63
2022/06/18 15:13:11;;;;;;;2.03;1.30;;;;;;;;;;4990092;28;20061;-63
2022/06/18 15:16:06;;;;;;;1.85;1.40;;;;;;;;;;4994917;28;20046;-62
2022/06/18 15:23:52;;;;;;;1.48;1.33;;;;;;;;;;4990468;28;20132;-61
2022/06/18 15:26:20;;;;;;;2.35;1.40;;;;;;;;;;5001370;28;20117;-63
2022/06/18 15:28:47;;;;;;;1.85;1.20;;;;;;;;;;4998301;28;20039;-62